sensor_id;sensor_type;location;lat;lon;timestamp;temperature;humidity
33476;DHT22;19814;48.224;11.422;2023-03-15T00:00:07;5.20;99.90
33476;DHT22;19814;48.224;11.422;2023-03-15T00:02:37;5.30;99.90
33476;DHT22;19814;48.224;11.422;2023-03-15T00:05:03;5.30;99.90
33476;DHT22;19814;48.224;11.422;2023-03-15T00:07:29;5.30;99.90
33476;DHT22;19814;48.224;11.422;2023-03-15T00:09:55;5.40;99.90
33476;DHT22;19814;48.224;11.422;2023-03-15T00:12:21;5.50;99.90
33476;DHT22;19814;48.224;11.422;2023-03-15T00:14:50;5.50;99.90
33476;DHT22;19814;48.224;11.422;2023-03-15T00:17:15;5.50;99.90
33476;DHT22;19814;48.224;11.422;2023-03-15T00:19:41;5.40;99.90
33476;DHT22;19814;48.224;11.422;2023-03-15T00:22:07;5.10;99.90
33476;DHT22;19814;48.224;11.422;2023-03-15T00:24:32;5.00;99.90
33476;DHT22;19814;48.224;11.422;2023-03-15T00:26:58;4.90;99.90
33476;DHT22;19814;48.224;11.422;2023-03-15T00:29:23;4.80;99.90
33476;DHT22;19814;48.224;11.422;2023-03-15T00:31:49;4.50;99.90
33476;DHT22;19814;48.224;11.422;2023-03-15T00:34:16;4.10;99.90
33476;DHT22;19814;48.224;11.422;2023-03-15T00:36:43;4.00;99.90
33476;DHT22;19814;48.224;11.422;2023-03-15T00:39:09;3.70;99.90
33476;DHT22;19814;48.224;11.422;2023-03-15T00:41:35;3.60;99.90
33476;DHT22;19814;48.224;11.422;2023-03-15T00:44:00;3.50;99.90
33476;DHT22;19814;48.224;11.422;2023-03-15T00:46:26;3.40;99.90
33476;DHT22;19814;48.224;11.422;2023-03-15T00:48:51;3.10;99.90
33476;DHT22;19814;48.224;11.422;2023-03-15T00:51:19;3.00;99.90
33476;DHT22;19814;48.224;11.422;2023-03-15T00:53:47;2.90;99.90
33476;DHT22;19814;48.224;11.422;2023-03-15T00:56:24;2.70;99.90
33476;DHT22;19814;48.224;11.422;2023-03-15T00:58:50;2.50;99.90
33476;DHT22;19814;48.224;11.422;2023-03-15T01:01:22;2.50;99.90
33476;DHT22;19814;48.224;11.422;2023-03-15T01:03:48;2.40;99.90
33476;DHT22;19814;48.224;11.422;2023-03-15T01:06:16;2.40;99.90
33476;DHT22;19814;48.224;11.422;2023-03-15T01:08:42;2.30;99.90
33476;DHT22;19814;48.224;11.422;2023-03-15T01:11:11;2.40;99.90
33476;DHT22;19814;48.224;11.422;2023-03-15T01:13:37;2.30;99.90
33476;DHT22;19814;48.224;11.422;2023-03-15T01:16:04;2.30;99.90
33476;DHT22;19814;48.224;11.422;2023-03-15T01:18:30;2.30;99.90
33476;DHT22;19814;48.224;11.422;2023-03-15T01:20:56;2.40;99.90
33476;DHT22;19814;48.224;11.422;2023-03-15T01:23:22;2.40;99.90
33476;DHT22;19814;48.224;11.422;2023-03-15T01:25:47;2.50;99.90
33476;DHT22;19814;48.224;11.422;2023-03-15T01:28:13;2.50;99.90
33476;DHT22;19814;48.224;11.422;2023-03-15T01:30:38;2.50;99.90
33476;DHT22;19814;48.224;11.422;2023-03-15T01:33:04;2.50;99.90
33476;DHT22;19814;48.224;11.422;2023-03-15T01:35:29;2.60;99.90
33476;DHT22;19814;48.224;11.422;2023-03-15T01:37:55;2.60;99.90
33476;DHT22;19814;48.224;11.422;2023-03-15T01:40:20;2.60;99.90
33476;DHT22;19814;48.224;11.422;2023-03-15T01:45:58;2.70;99.90
33476;DHT22;19814;48.224;11.422;2023-03-15T01:48:34;2.70;99.90
33476;DHT22;19814;48.224;11.422;2023-03-15T01:51:23;2.70;99.90
33476;DHT22;19814;48.224;11.422;2023-03-15T01:54:09;2.80;99.90
33476;DHT22;19814;48.224;11.422;2023-03-15T01:56:40;2.70;99.90
33476;DHT22;19814;48.224;11.422;2023-03-15T01:59:12;2.70;99.90
33476;DHT22;19814;48.224;11.422;2023-03-15T02:01:41;2.70;99.90
33476;DHT22;19814;48.224;11.422;2023-03-15T02:04:14;2.70;99.90
33476;DHT22;19814;48.224;11.422;2023-03-15T02:06:41;2.70;99.90
33476;DHT22;19814;48.224;11.422;2023-03-15T02:09:14;2.70;99.90
33476;DHT22;19814;48.224;11.422;2023-03-15T02:11:41;2.80;99.90
33476;DHT22;19814;48.224;11.422;2023-03-15T02:14:10;2.80;99.90
33476;DHT22;19814;48.224;11.422;2023-03-15T02:16:36;2.80;99.90
33476;DHT22;19814;48.224;11.422;2023-03-15T02:19:05;2.90;99.90
33476;DHT22;19814;48.224;11.422;2023-03-15T02:22:04;2.90;99.90
33476;DHT22;19814;48.224;11.422;2023-03-15T02:27:13;2.90;99.90
33476;DHT22;19814;48.224;11.422;2023-03-15T02:29:39;2.90;99.90
33476;DHT22;19814;48.224;11.422;2023-03-15T02:32:06;2.90;99.90
33476;DHT22;19814;48.224;11.422;2023-03-15T02:34:32;2.90;99.90
33476;DHT22;19814;48.224;11.422;2023-03-15T02:36:57;2.80;99.90
33476;DHT22;19814;48.224;11.422;2023-03-15T02:39:23;2.70;99.90
33476;DHT22;19814;48.224;11.422;2023-03-15T02:41:53;2.60;99.90
33476;DHT22;19814;48.224;11.422;2023-03-15T02:44:33;2.50;99.90
33476;DHT22;19814;48.224;11.422;2023-03-15T02:47:30;2.40;99.90
33476;DHT22;19814;48.224;11.422;2023-03-15T02:49:56;2.20;99.90
33476;DHT22;19814;48.224;11.422;2023-03-15T02:52:22;2.10;99.90
33476;DHT22;19814;48.224;11.422;2023-03-15T02:54:48;2.00;99.90
33476;DHT22;19814;48.224;11.422;2023-03-15T02:57:16;1.90;99.90
33476;DHT22;19814;48.224;11.422;2023-03-15T02:59:42;1.90;99.90
33476;DHT22;19814;48.224;11.422;2023-03-15T03:02:08;1.90;99.90
33476;DHT22;19814;48.224;11.422;2023-03-15T03:04:36;1.80;99.90
33476;DHT22;19814;48.224;11.422;2023-03-15T03:07:02;1.80;99.90
33476;DHT22;19814;48.224;11.422;2023-03-15T03:09:28;1.80;99.90
33476;DHT22;19814;48.224;11.422;2023-03-15T03:11:53;1.80;99.90
33476;DHT22;19814;48.224;11.422;2023-03-15T03:14:19;1.80;99.90
33476;DHT22;19814;48.224;11.422;2023-03-15T03:16:48;1.70;99.90
33476;DHT22;19814;48.224;11.422;2023-03-15T03:19:13;1.60;99.90
33476;DHT22;19814;48.224;11.422;2023-03-15T03:21:40;1.60;99.90
33476;DHT22;19814;48.224;11.422;2023-03-15T03:24:09;1.60;99.90
33476;DHT22;19814;48.224;11.422;2023-03-15T03:26:34;1.60;99.90
33476;DHT22;19814;48.224;11.422;2023-03-15T03:29:02;1.60;99.90
33476;DHT22;19814;48.224;11.422;2023-03-15T03:31:29;1.60;99.90
33476;DHT22;19814;48.224;11.422;2023-03-15T03:33:58;1.70;99.90
33476;DHT22;19814;48.224;11.422;2023-03-15T03:36:23;1.80;99.90
33476;DHT22;19814;48.224;11.422;2023-03-15T03:38:49;1.70;99.90
33476;DHT22;19814;48.224;11.422;2023-03-15T03:41:16;1.80;99.90
33476;DHT22;19814;48.224;11.422;2023-03-15T03:43:41;1.70;99.90
33476;DHT22;19814;48.224;11.422;2023-03-15T03:46:07;1.70;99.90
33476;DHT22;19814;48.224;11.422;2023-03-15T03:48:33;1.70;99.90
33476;DHT22;19814;48.224;11.422;2023-03-15T03:50:58;1.80;99.90
33476;DHT22;19814;48.224;11.422;2023-03-15T03:53:24;1.80;99.90
33476;DHT22;19814;48.224;11.422;2023-03-15T03:55:50;1.70;99.90
33476;DHT22;19814;48.224;11.422;2023-03-15T03:58:15;1.70;99.90
33476;DHT22;19814;48.224;11.422;2023-03-15T04:00:41;1.70;99.90
33476;DHT22;19814;48.224;11.422;2023-03-15T04:03:07;1.70;99.90
33476;DHT22;19814;48.224;11.422;2023-03-15T04:05:33;1.70;99.90
33476;DHT22;19814;48.224;11.422;2023-03-15T04:07:58;1.70;99.90
33476;DHT22;19814;48.224;11.422;2023-03-15T04:10:24;1.80;99.90
33476;DHT22;19814;48.224;11.422;2023-03-15T04:12:54;1.80;99.90
33476;DHT22;19814;48.224;11.422;2023-03-15T04:15:19;1.80;99.90
33476;DHT22;19814;48.224;11.422;2023-03-15T04:17:47;1.80;99.90
33476;DHT22;19814;48.224;11.422;2023-03-15T04:20:13;1.80;99.90
33476;DHT22;19814;48.224;11.422;2023-03-15T04:22:42;1.80;99.90
33476;DHT22;19814;48.224;11.422;2023-03-15T04:25:22;1.80;99.90
33476;DHT22;19814;48.224;11.422;2023-03-15T04:27:51;1.90;99.90
33476;DHT22;19814;48.224;11.422;2023-03-15T04:30:27;1.90;99.90
33476;DHT22;19814;48.224;11.422;2023-03-15T04:32:53;1.90;99.90
33476;DHT22;19814;48.224;11.422;2023-03-15T04:35:29;1.90;99.90
33476;DHT22;19814;48.224;11.422;2023-03-15T04:37:56;1.90;99.90
33476;DHT22;19814;48.224;11.422;2023-03-15T04:40:22;1.90;99.90
33476;DHT22;19814;48.224;11.422;2023-03-15T04:42:54;1.90;99.90
33476;DHT22;19814;48.224;11.422;2023-03-15T04:45:24;1.80;99.90
33476;DHT22;19814;48.224;11.422;2023-03-15T04:47:51;1.80;99.90
33476;DHT22;19814;48.224;11.422;2023-03-15T04:50:17;1.70;99.90
33476;DHT22;19814;48.224;11.422;2023-03-15T04:52:43;1.70;99.90
33476;DHT22;19814;48.224;11.422;2023-03-15T04:55:09;1.70;99.90
33476;DHT22;19814;48.224;11.422;2023-03-15T04:57:35;1.60;99.90
33476;DHT22;19814;48.224;11.422;2023-03-15T05:00:01;1.60;99.90
33476;DHT22;19814;48.224;11.422;2023-03-15T05:02:26;1.60;99.90
33476;DHT22;19814;48.224;11.422;2023-03-15T05:04:52;1.60;99.90
33476;DHT22;19814;48.224;11.422;2023-03-15T05:07:17;1.60;99.90
33476;DHT22;19814;48.224;11.422;2023-03-15T05:09:43;1.60;99.90
33476;DHT22;19814;48.224;11.422;2023-03-15T05:12:11;1.60;99.90
33476;DHT22;19814;48.224;11.422;2023-03-15T05:14:36;1.70;99.90
33476;DHT22;19814;48.224;11.422;2023-03-15T05:17:02;1.60;99.90
33476;DHT22;19814;48.224;11.422;2023-03-15T05:19:28;1.70;99.90
33476;DHT22;19814;48.224;11.422;2023-03-15T05:21:53;1.60;99.90
33476;DHT22;19814;48.224;11.422;2023-03-15T05:24:20;1.60;99.90
33476;DHT22;19814;48.224;11.422;2023-03-15T05:26:45;1.60;99.90
33476;DHT22;19814;48.224;11.422;2023-03-15T05:29:12;1.50;99.90
33476;DHT22;19814;48.224;11.422;2023-03-15T05:31:38;1.50;99.90
33476;DHT22;19814;48.224;11.422;2023-03-15T05:34:04;1.50;99.90
33476;DHT22;19814;48.224;11.422;2023-03-15T05:36:30;1.50;99.90
33476;DHT22;19814;48.224;11.422;2023-03-15T05:38:56;1.50;99.90
33476;DHT22;19814;48.224;11.422;2023-03-15T05:41:22;1.50;99.90
33476;DHT22;19814;48.224;11.422;2023-03-15T05:43:48;1.50;99.90
33476;DHT22;19814;48.224;11.422;2023-03-15T05:46:14;1.50;99.90
33476;DHT22;19814;48.224;11.422;2023-03-15T05:48:39;1.40;99.90
33476;DHT22;19814;48.224;11.422;2023-03-15T05:51:05;1.50;99.90
33476;DHT22;19814;48.224;11.422;2023-03-15T05:53:30;1.50;99.90
33476;DHT22;19814;48.224;11.422;2023-03-15T05:55:56;1.50;99.90
33476;DHT22;19814;48.224;11.422;2023-03-15T05:58:22;1.50;99.90
33476;DHT22;19814;48.224;11.422;2023-03-15T06:00:48;1.50;99.90
33476;DHT22;19814;48.224;11.422;2023-03-15T06:03:14;1.50;99.90
33476;DHT22;19814;48.224;11.422;2023-03-15T06:05:40;1.50;99.90
33476;DHT22;19814;48.224;11.422;2023-03-15T06:08:06;1.50;99.90
33476;DHT22;19814;48.224;11.422;2023-03-15T06:10:31;1.40;99.90
33476;DHT22;19814;48.224;11.422;2023-03-15T06:12:58;1.40;99.90
33476;DHT22;19814;48.224;11.422;2023-03-15T06:15:24;1.40;99.90
33476;DHT22;19814;48.224;11.422;2023-03-15T06:17:50;1.50;99.90
33476;DHT22;19814;48.224;11.422;2023-03-15T06:20:16;1.50;99.90
33476;DHT22;19814;48.224;11.422;2023-03-15T06:22:41;1.60;99.90
33476;DHT22;19814;48.224;11.422;2023-03-15T06:25:08;1.60;99.90
33476;DHT22;19814;48.224;11.422;2023-03-15T06:27:34;1.80;99.90
33476;DHT22;19814;48.224;11.422;2023-03-15T06:29:59;1.80;99.90
33476;DHT22;19814;48.224;11.422;2023-03-15T06:32:25;1.90;99.90
33476;DHT22;19814;48.224;11.422;2023-03-15T06:34:51;1.90;99.90
33476;DHT22;19814;48.224;11.422;2023-03-15T06:37:17;2.20;99.90
33476;DHT22;19814;48.224;11.422;2023-03-15T06:39:43;2.30;99.90
33476;DHT22;19814;48.224;11.422;2023-03-15T06:42:10;2.40;99.90
33476;DHT22;19814;48.224;11.422;2023-03-15T06:44:41;2.40;99.90
33476;DHT22;19814;48.224;11.422;2023-03-15T06:47:09;2.60;99.90
33476;DHT22;19814;48.224;11.422;2023-03-15T06:49:35;2.70;99.90
33476;DHT22;19814;48.224;11.422;2023-03-15T06:52:02;2.80;99.90
33476;DHT22;19814;48.224;11.422;2023-03-15T06:54:28;3.00;99.90
33476;DHT22;19814;48.224;11.422;2023-03-15T06:56:53;3.20;99.90
33476;DHT22;19814;48.224;11.422;2023-03-15T06:59:19;3.40;99.90
33476;DHT22;19814;48.224;11.422;2023-03-15T07:01:44;3.50;99.90
33476;DHT22;19814;48.224;11.422;2023-03-15T07:04:10;3.50;99.90
33476;DHT22;19814;48.224;11.422;2023-03-15T07:06:35;3.70;99.90
33476;DHT22;19814;48.224;11.422;2023-03-15T07:09:02;3.90;99.90
33476;DHT22;19814;48.224;11.422;2023-03-15T07:11:27;4.30;99.90
33476;DHT22;19814;48.224;11.422;2023-03-15T07:13:53;4.50;99.90
33476;DHT22;19814;48.224;11.422;2023-03-15T07:16:19;4.60;99.90
33476;DHT22;19814;48.224;11.422;2023-03-15T07:18:44;4.90;99.90
33476;DHT22;19814;48.224;11.422;2023-03-15T07:21:10;5.20;99.90
33476;DHT22;19814;48.224;11.422;2023-03-15T07:23:35;5.30;99.90
33476;DHT22;19814;48.224;11.422;2023-03-15T07:26:01;5.60;99.90
33476;DHT22;19814;48.224;11.422;2023-03-15T07:28:27;6.10;99.90
33476;DHT22;19814;48.224;11.422;2023-03-15T07:30:56;6.30;99.80
33476;DHT22;19814;48.224;11.422;2023-03-15T07:33:23;6.40;99.90
33476;DHT22;19814;48.224;11.422;2023-03-15T07:35:50;6.80;99.90
33476;DHT22;19814;48.224;11.422;2023-03-15T07:38:18;7.30;99.70
33476;DHT22;19814;48.224;11.422;2023-03-15T07:40:44;7.70;98.30
33476;DHT22;19814;48.224;11.422;2023-03-15T07:43:10;8.10;97.10
33476;DHT22;19814;48.224;11.422;2023-03-15T07:45:35;8.00;96.60
33476;DHT22;19814;48.224;11.422;2023-03-15T07:48:01;8.50;96.50
33476;DHT22;19814;48.224;11.422;2023-03-15T07:50:26;9.00;96.50
33476;DHT22;19814;48.224;11.422;2023-03-15T07:52:52;9.50;94.90
33476;DHT22;19814;48.224;11.422;2023-03-15T07:55:17;9.40;93.30
33476;DHT22;19814;48.224;11.422;2023-03-15T07:57:43;9.00;93.50
33476;DHT22;19814;48.224;11.422;2023-03-15T08:00:09;9.00;93.30
33476;DHT22;19814;48.224;11.422;2023-03-15T08:02:36;8.50;93.00
33476;DHT22;19814;48.224;11.422;2023-03-15T08:05:02;8.70;94.00
33476;DHT22;19814;48.224;11.422;2023-03-15T08:07:29;8.70;93.80
33476;DHT22;19814;48.224;11.422;2023-03-15T08:09:54;8.40;93.40
33476;DHT22;19814;48.224;11.422;2023-03-15T08:12:23;7.80;94.10
33476;DHT22;19814;48.224;11.422;2023-03-15T08:14:48;7.10;95.40
33476;DHT22;19814;48.224;11.422;2023-03-15T08:17:14;6.80;96.20
33476;DHT22;19814;48.224;11.422;2023-03-15T08:19:40;7.60;96.80
33476;DHT22;19814;48.224;11.422;2023-03-15T08:22:06;8.00;94.50
33476;DHT22;19814;48.224;11.422;2023-03-15T08:24:32;8.30;93.70
33476;DHT22;19814;48.224;11.422;2023-03-15T08:26:57;8.20;93.40
33476;DHT22;19814;48.224;11.422;2023-03-15T08:29:23;7.70;94.30
33476;DHT22;19814;48.224;11.422;2023-03-15T08:31:48;7.20;94.70
33476;DHT22;19814;48.224;11.422;2023-03-15T08:34:14;7.70;95.50
33476;DHT22;19814;48.224;11.422;2023-03-15T08:36:40;8.10;94.00
33476;DHT22;19814;48.224;11.422;2023-03-15T08:39:06;7.70;94.00
33476;DHT22;19814;48.224;11.422;2023-03-15T08:41:33;6.80;95.60
33476;DHT22;19814;48.224;11.422;2023-03-15T08:43:59;6.20;95.40
33476;DHT22;19814;48.224;11.422;2023-03-15T08:46:26;6.10;95.90
33476;DHT22;19814;48.224;11.422;2023-03-15T08:48:51;5.60;96.20
33476;DHT22;19814;48.224;11.422;2023-03-15T08:51:17;5.40;96.10
33476;DHT22;19814;48.224;11.422;2023-03-15T08:53:44;5.60;97.40
33476;DHT22;19814;48.224;11.422;2023-03-15T08:56:10;6.80;95.10
33476;DHT22;19814;48.224;11.422;2023-03-15T08:58:36;7.60;94.70
33476;DHT22;19814;48.224;11.422;2023-03-15T09:01:02;8.30;92.00
33476;DHT22;19814;48.224;11.422;2023-03-15T09:03:29;8.30;92.00
33476;DHT22;19814;48.224;11.422;2023-03-15T09:05:57;9.10;92.10
33476;DHT22;19814;48.224;11.422;2023-03-15T09:08:24;9.40;90.60
33476;DHT22;19814;48.224;11.422;2023-03-15T09:10:54;8.80;90.80
33476;DHT22;19814;48.224;11.422;2023-03-15T09:13:20;9.50;90.00
33476;DHT22;19814;48.224;11.422;2023-03-15T09:15:51;10.80;88.70
33476;DHT22;19814;48.224;11.422;2023-03-15T09:18:18;12.30;83.60
33476;DHT22;19814;48.224;11.422;2023-03-15T09:20:44;13.10;74.50
33476;DHT22;19814;48.224;11.422;2023-03-15T09:23:10;13.10;71.60
33476;DHT22;19814;48.224;11.422;2023-03-15T09:25:35;12.20;72.50
33476;DHT22;19814;48.224;11.422;2023-03-15T09:28:02;12.10;71.50
33476;DHT22;19814;48.224;11.422;2023-03-15T09:30:28;12.60;72.30
33476;DHT22;19814;48.224;11.422;2023-03-15T09:32:54;12.40;71.80
33476;DHT22;19814;48.224;11.422;2023-03-15T09:35:20;11.90;71.40
33476;DHT22;19814;48.224;11.422;2023-03-15T09:37:46;12.10;73.20
33476;DHT22;19814;48.224;11.422;2023-03-15T09:45:39;10.80;74.70
33476;DHT22;19814;48.224;11.422;2023-03-15T09:48:13;10.40;75.60
33476;DHT22;19814;48.224;11.422;2023-03-15T09:50:47;9.70;75.50
33476;DHT22;19814;48.224;11.422;2023-03-15T09:53:19;9.10;80.60
33476;DHT22;19814;48.224;11.422;2023-03-15T09:55:47;10.90;78.00
33476;DHT22;19814;48.224;11.422;2023-03-15T09:58:16;12.50;72.10
33476;DHT22;19814;48.224;11.422;2023-03-15T10:00:48;13.50;66.00
33476;DHT22;19814;48.224;11.422;2023-03-15T10:03:33;13.50;66.80
33476;DHT22;19814;48.224;11.422;2023-03-15T10:06:11;13.40;65.50
33476;DHT22;19814;48.224;11.422;2023-03-15T10:08:37;13.90;65.60
33476;DHT22;19814;48.224;11.422;2023-03-15T10:11:08;13.50;66.20
33476;DHT22;19814;48.224;11.422;2023-03-15T10:27:41;15.60;56.70
33476;DHT22;19814;48.224;11.422;2023-03-15T10:30:30;15.70;55.60
33476;DHT22;19814;48.224;11.422;2023-03-15T10:35:37;15.10;59.80
33476;DHT22;19814;48.224;11.422;2023-03-15T10:38:15;16.20;55.50
33476;DHT22;19814;48.224;11.422;2023-03-15T10:40:49;15.70;55.00
33476;DHT22;19814;48.224;11.422;2023-03-15T10:43:29;14.60;57.80
33476;DHT22;19814;48.224;11.422;2023-03-15T10:46:20;15.00;56.70
33476;DHT22;19814;48.224;11.422;2023-03-15T10:48:58;16.50;57.00
33476;DHT22;19814;48.224;11.422;2023-03-15T10:51:33;18.00;50.90
33476;DHT22;19814;48.224;11.422;2023-03-15T10:54:07;17.20;50.30
33476;DHT22;19814;48.224;11.422;2023-03-15T10:56:45;15.80;52.60
33476;DHT22;19814;48.224;11.422;2023-03-15T10:59:20;15.20;48.60
33476;DHT22;19814;48.224;11.422;2023-03-15T11:01:47;15.70;51.00
33476;DHT22;19814;48.224;11.422;2023-03-15T11:04:24;17.10;51.10
33476;DHT22;19814;48.224;11.422;2023-03-15T11:06:59;18.30;48.00
33476;DHT22;19814;48.224;11.422;2023-03-15T11:09:38;16.40;48.80
33476;DHT22;19814;48.224;11.422;2023-03-15T11:12:06;16.20;50.00
33476;DHT22;19814;48.224;11.422;2023-03-15T11:14:41;16.40;49.90
33476;DHT22;19814;48.224;11.422;2023-03-15T11:17:17;16.60;51.70
33476;DHT22;19814;48.224;11.422;2023-03-15T11:19:58;15.80;48.40
33476;DHT22;19814;48.224;11.422;2023-03-15T11:22:25;14.20;47.60
33476;DHT22;19814;48.224;11.422;2023-03-15T11:24:52;14.10;48.40
33476;DHT22;19814;48.224;11.422;2023-03-15T11:27:23;14.40;47.30
33476;DHT22;19814;48.224;11.422;2023-03-15T11:29:58;13.00;49.20
33476;DHT22;19814;48.224;11.422;2023-03-15T11:32:26;13.40;54.70
33476;DHT22;19814;48.224;11.422;2023-03-15T11:35:05;15.00;51.10
33476;DHT22;19814;48.224;11.422;2023-03-15T11:37:40;16.20;48.70
33476;DHT22;19814;48.224;11.422;2023-03-15T11:40:25;17.00;45.60
33476;DHT22;19814;48.224;11.422;2023-03-15T11:43:00;16.60;46.80
33476;DHT22;19814;48.224;11.422;2023-03-15T11:45:43;17.20;42.80
33476;DHT22;19814;48.224;11.422;2023-03-15T11:48:17;18.70;43.70
33476;DHT22;19814;48.224;11.422;2023-03-15T11:50:44;19.50;40.50
33476;DHT22;19814;48.224;11.422;2023-03-15T11:53:13;19.70;43.30
33476;DHT22;19814;48.224;11.422;2023-03-15T11:55:39;20.50;40.70
33476;DHT22;19814;48.224;11.422;2023-03-15T11:58:29;20.50;40.20
33476;DHT22;19814;48.224;11.422;2023-03-15T12:01:09;18.50;42.60
33476;DHT22;19814;48.224;11.422;2023-03-15T12:03:40;19.20;41.80
33476;DHT22;19814;48.224;11.422;2023-03-15T12:16:28;20.70;39.20
33476;DHT22;19814;48.224;11.422;2023-03-15T12:18:58;20.80;37.50
33476;DHT22;19814;48.224;11.422;2023-03-15T12:21:30;20.40;39.70
33476;DHT22;19814;48.224;11.422;2023-03-15T12:24:03;18.90;41.70
33476;DHT22;19814;48.224;11.422;2023-03-15T12:26:44;19.60;39.90
33476;DHT22;19814;48.224;11.422;2023-03-15T12:29:26;20.20;38.40
33476;DHT22;19814;48.224;11.422;2023-03-15T12:34:47;20.70;38.20
33476;DHT22;19814;48.224;11.422;2023-03-15T12:37:29;19.90;39.10
33476;DHT22;19814;48.224;11.422;2023-03-15T12:55:50;12.90;47.80
33476;DHT22;19814;48.224;11.422;2023-03-15T12:58:19;11.90;51.50
33476;DHT22;19814;48.224;11.422;2023-03-15T13:00:46;11.50;50.50
33476;DHT22;19814;48.224;11.422;2023-03-15T13:03:21;11.20;51.50
33476;DHT22;19814;48.224;11.422;2023-03-15T13:06:09;10.60;52.40
33476;DHT22;19814;48.224;11.422;2023-03-15T13:11:41;9.70;54.60
33476;DHT22;19814;48.224;11.422;2023-03-15T13:17:48;9.20;57.40
33476;DHT22;19814;48.224;11.422;2023-03-15T13:20:37;9.10;56.90
33476;DHT22;19814;48.224;11.422;2023-03-15T13:23:24;9.50;57.60
33476;DHT22;19814;48.224;11.422;2023-03-15T13:28:37;9.80;56.30
33476;DHT22;19814;48.224;11.422;2023-03-15T13:31:12;9.80;57.30
33476;DHT22;19814;48.224;11.422;2023-03-15T13:33:41;9.40;55.90
33476;DHT22;19814;48.224;11.422;2023-03-15T13:36:12;9.30;57.20
33476;DHT22;19814;48.224;11.422;2023-03-15T13:38:44;9.20;57.30
33476;DHT22;19814;48.224;11.422;2023-03-15T13:43:42;8.90;58.60
33476;DHT22;19814;48.224;11.422;2023-03-15T13:46:08;8.70;58.60
33476;DHT22;19814;48.224;11.422;2023-03-15T13:48:36;8.80;59.80
33476;DHT22;19814;48.224;11.422;2023-03-15T13:51:08;8.80;58.80
33476;DHT22;19814;48.224;11.422;2023-03-15T13:53:37;8.80;60.60
33476;DHT22;19814;48.224;11.422;2023-03-15T13:56:06;8.90;62.10
33476;DHT22;19814;48.224;11.422;2023-03-15T13:58:32;9.10;60.20
33476;DHT22;19814;48.224;11.422;2023-03-15T14:01:00;9.20;60.40
33476;DHT22;19814;48.224;11.422;2023-03-15T14:03:28;9.10;58.90
33476;DHT22;19814;48.224;11.422;2023-03-15T14:05:55;8.80;59.00
33476;DHT22;19814;48.224;11.422;2023-03-15T14:11:04;8.60;60.30
33476;DHT22;19814;48.224;11.422;2023-03-15T14:13:32;8.60;62.50
33476;DHT22;19814;48.224;11.422;2023-03-15T14:16:02;8.60;61.50
33476;DHT22;19814;48.224;11.422;2023-03-15T14:18:39;8.60;62.00
33476;DHT22;19814;48.224;11.422;2023-03-15T14:23:30;8.70;60.90
33476;DHT22;19814;48.224;11.422;2023-03-15T14:28:31;8.70;63.00
33476;DHT22;19814;48.224;11.422;2023-03-15T14:30:58;8.90;62.60
33476;DHT22;19814;48.224;11.422;2023-03-15T14:33:38;9.00;62.70
33476;DHT22;19814;48.224;11.422;2023-03-15T14:36:23;9.00;61.50
33476;DHT22;19814;48.224;11.422;2023-03-15T14:38:51;8.90;61.10
33476;DHT22;19814;48.224;11.422;2023-03-15T14:43:46;8.70;61.20
33476;DHT22;19814;48.224;11.422;2023-03-15T14:46:12;8.50;60.50
33476;DHT22;19814;48.224;11.422;2023-03-15T14:48:37;8.40;62.40
33476;DHT22;19814;48.224;11.422;2023-03-15T14:51:03;8.30;62.70
33476;DHT22;19814;48.224;11.422;2023-03-15T14:53:33;8.20;61.90
33476;DHT22;19814;48.224;11.422;2023-03-15T14:56:00;8.20;61.10
33476;DHT22;19814;48.224;11.422;2023-03-15T14:58:25;8.00;61.40
33476;DHT22;19814;48.224;11.422;2023-03-15T15:00:55;7.90;62.00
33476;DHT22;19814;48.224;11.422;2023-03-15T15:03:34;7.90;62.90
33476;DHT22;19814;48.224;11.422;2023-03-15T15:06:04;7.90;63.80
33476;DHT22;19814;48.224;11.422;2023-03-15T15:08:31;7.90;60.60
33476;DHT22;19814;48.224;11.422;2023-03-15T15:10:58;7.80;63.40
33476;DHT22;19814;48.224;11.422;2023-03-15T15:13:26;7.90;61.90
33476;DHT22;19814;48.224;11.422;2023-03-15T15:15:53;7.90;62.40
33476;DHT22;19814;48.224;11.422;2023-03-15T15:18:18;7.90;64.00
33476;DHT22;19814;48.224;11.422;2023-03-15T15:20:44;7.90;62.80
33476;DHT22;19814;48.224;11.422;2023-03-15T15:23:17;7.90;62.60
33476;DHT22;19814;48.224;11.422;2023-03-15T15:25:44;7.80;63.10
33476;DHT22;19814;48.224;11.422;2023-03-15T15:28:10;7.80;62.40
33476;DHT22;19814;48.224;11.422;2023-03-15T15:30:36;7.70;63.50
33476;DHT22;19814;48.224;11.422;2023-03-15T15:33:02;7.60;62.80
33476;DHT22;19814;48.224;11.422;2023-03-15T15:35:28;7.70;64.30
33476;DHT22;19814;48.224;11.422;2023-03-15T15:37:54;7.70;64.30
33476;DHT22;19814;48.224;11.422;2023-03-15T15:40:30;7.60;62.40
33476;DHT22;19814;48.224;11.422;2023-03-15T15:42:56;7.60;62.40
33476;DHT22;19814;48.224;11.422;2023-03-15T15:45:22;7.30;69.40
33476;DHT22;19814;48.224;11.422;2023-03-15T15:47:49;7.00;73.70
33476;DHT22;19814;48.224;11.422;2023-03-15T15:50:17;6.70;75.30
33476;DHT22;19814;48.224;11.422;2023-03-15T15:52:48;6.50;77.40
33476;DHT22;19814;48.224;11.422;2023-03-15T15:55:17;6.40;79.90
33476;DHT22;19814;48.224;11.422;2023-03-15T15:57:46;6.40;79.30
33476;DHT22;19814;48.224;11.422;2023-03-15T16:00:21;6.50;82.00
33476;DHT22;19814;48.224;11.422;2023-03-15T16:02:48;6.40;83.40
33476;DHT22;19814;48.224;11.422;2023-03-15T16:05:14;6.30;84.40
33476;DHT22;19814;48.224;11.422;2023-03-15T16:07:40;6.10;86.20
33476;DHT22;19814;48.224;11.422;2023-03-15T16:10:09;5.90;87.00
33476;DHT22;19814;48.224;11.422;2023-03-15T16:12:39;5.50;88.70
33476;DHT22;19814;48.224;11.422;2023-03-15T16:15:05;5.50;90.90
33476;DHT22;19814;48.224;11.422;2023-03-15T16:17:31;5.50;91.30
33476;DHT22;19814;48.224;11.422;2023-03-15T16:19:56;5.70;91.00
33476;DHT22;19814;48.224;11.422;2023-03-15T16:22:23;5.60;90.90
33476;DHT22;19814;48.224;11.422;2023-03-15T16:24:53;5.60;91.40
33476;DHT22;19814;48.224;11.422;2023-03-15T16:27:22;5.60;91.20
33476;DHT22;19814;48.224;11.422;2023-03-15T16:29:49;5.30;91.40
33476;DHT22;19814;48.224;11.422;2023-03-15T16:32:19;5.30;91.80
33476;DHT22;19814;48.224;11.422;2023-03-15T16:34:45;5.30;92.60
33476;DHT22;19814;48.224;11.422;2023-03-15T16:37:17;5.30;93.00
33476;DHT22;19814;48.224;11.422;2023-03-15T16:39:46;5.40;93.20
33476;DHT22;19814;48.224;11.422;2023-03-15T16:42:14;5.50;93.50
33476;DHT22;19814;48.224;11.422;2023-03-15T16:44:40;5.60;93.10
33476;DHT22;19814;48.224;11.422;2023-03-15T16:47:06;5.60;93.00
33476;DHT22;19814;48.224;11.422;2023-03-15T16:49:32;5.80;92.50
33476;DHT22;19814;48.224;11.422;2023-03-15T16:51:58;5.80;92.00
33476;DHT22;19814;48.224;11.422;2023-03-15T16:54:25;5.80;92.40